Time;durP1;ratioP1;P1;durP2;ratioP2;P2;SDS_P1;SDS_P2;PMS_P1;PMS_P2;Temp;Humidity;BMP_temperature;BMP_pressure;BME280_temperature;BME280_humidity;BME280_pressure;Samples;Min_cycle;Max_cycle;Signal;HPM_P1;HPM_P2
2023/07/29 00:02:42;;;;;;;4.60;3.90;;;20.00;99.90;;;;;;21085846;28;20289;-66
2023/07/29 00:12:44;;;;;;;4.00;3.30;;;20.00;99.90;;;;;;21083951;28;20328;-65
2023/07/29 00:22:46;;;;;;;4.33;3.30;;;20.00;99.90;;;;;;21083933;28;20202;-65
2023/07/29 00:32:48;;;;;;;5.13;3.40;;;19.90;99.90;;;;;;21083672;28;20228;-67
2023/07/29 00:42:52;;;;;;;4.07;3.47;;;19.80;99.90;;;;;;21081190;28;20245;-67
2023/07/29 00:52:55;;;;;;;4.50;3.33;;;19.80;99.90;;;;;;21081223;28;20245;-65
2023/07/29 01:02:56;;;;;;;7.17;4.03;;;19.80;99.90;;;;;;21080941;28;20289;-69
2023/07/29 01:13:37;;;;;;;4.77;3.80;;;19.80;99.90;;;;;;21078938;28;20240;-69
2023/07/29 01:23:39;;;;;;;4.27;3.67;;;19.80;99.90;;;;;;21079463;28;20214;-71
2023/07/29 01:34:13;;;;;;;3.93;3.50;;;19.80;99.90;;;;;;21079020;28;20329;-71
2023/07/29 01:44:16;;;;;;;4.70;4.00;;;19.80;99.90;;;;;;21078441;28;20209;-72
2023/07/29 01:54:17;;;;;;;11.03;5.70;;;19.70;99.90;;;;;;21077902;28;20316;-69
2023/07/29 02:04:19;;;;;;;6.43;3.60;;;19.60;99.90;;;;;;21077832;28;20262;-65
2023/07/29 02:14:21;;;;;;;4.63;3.20;;;19.70;99.90;;;;;;21077250;28;20233;-66
2023/07/29 02:24:23;;;;;;;4.03;3.63;;;19.60;99.90;;;;;;21090994;28;20292;-68
2023/07/29 02:34:24;;;;;;;3.93;3.37;;;19.60;99.90;;;;;;21092441;28;20241;-66
2023/07/29 02:44:26;;;;;;;3.70;3.13;;;19.60;99.90;;;;;;21091271;28;20213;-65
2023/07/29 02:54:28;;;;;;;4.03;3.00;;;19.60;99.90;;;;;;21090801;28;20755;-66
2023/07/29 03:04:30;;;;;;;4.47;3.53;;;19.70;99.90;;;;;;21090281;28;20229;-67
2023/07/29 03:14:34;;;;;;;6.33;3.33;;;19.60;99.90;;;;;;21088967;28;20233;-65
2023/07/29 03:24:36;;;;;;;6.00;3.80;;;19.70;99.90;;;;;;21088333;28;20693;-65
2023/07/29 03:34:40;;;;;;;6.60;3.47;;;19.60;99.90;;;;;;21086936;28;20240;-65
2023/07/29 03:44:41;;;;;;;6.43;2.50;;;19.50;99.90;;;;;;21085721;28;20206;-67
2023/07/29 03:54:43;;;;;;;4.87;3.83;;;19.50;99.90;;;;;;21085719;28;20232;-71
2023/07/29 04:04:47;;;;;;;4.70;2.70;;;19.40;99.90;;;;;;21085118;28;20265;-73
2023/07/29 04:14:49;;;;;;;4.77;3.10;;;19.50;99.90;;;;;;21084196;28;20358;-68
2023/07/29 04:24:51;;;;;;;8.90;2.83;;;19.40;99.90;;;;;;21083829;28;20559;-72
2023/07/29 04:34:52;;;;;;;4.43;2.83;;;19.40;99.90;;;;;;21082975;28;20237;-71
2023/07/29 04:44:54;;;;;;;6.47;2.60;;;19.40;99.90;;;;;;21082674;28;20557;-74
2023/07/29 04:54:56;;;;;;;5.80;2.60;;;19.50;99.90;;;;;;21081010;28;20327;-72
2023/07/29 05:04:58;;;;;;;3.23;2.50;;;19.50;99.90;;;;;;21080805;28;20231;-71
2023/07/29 05:15:00;;;;;;;4.27;2.10;;;19.60;99.90;;;;;;21079705;28;20232;-72
2023/07/29 05:25:02;;;;;;;4.07;2.10;;;19.70;99.90;;;;;;21079652;28;20214;-69
2023/07/29 05:35:05;;;;;;;6.63;2.30;;;19.80;99.90;;;;;;21079254;28;20229;-67
2023/07/29 05:45:07;;;;;;;7.57;3.20;;;19.80;99.90;;;;;;21078395;28;20205;-71
2023/07/29 05:55:09;;;;;;;2.50;2.20;;;19.80;99.90;;;;;;21084874;28;20327;-70
2023/07/29 06:05:11;;;;;;;2.27;1.60;;;19.90;99.90;;;;;;21095299;28;20272;-66
2023/07/29 06:15:13;;;;;;;1.93;1.70;;;20.00;99.90;;;;;;21093660;28;20237;-63
2023/07/29 06:25:15;;;;;;;1.80;1.60;;;20.00;99.90;;;;;;21093535;28;20202;-68
2023/07/29 06:35:17;;;;;;;3.50;1.63;;;20.10;99.90;;;;;;21112691;28;20268;-70
2023/07/29 06:45:18;;;;;;;3.07;1.60;;;20.10;99.90;;;;;;21133896;28;20288;-64
2023/07/29 06:55:20;;;;;;;5.93;1.90;;;20.10;99.90;;;;;;21107820;28;20585;-64
2023/07/29 07:05:22;;;;;;;2.33;1.50;;;20.10;99.90;;;;;;21085473;28;20227;-68
2023/07/29 07:15:23;;;;;;;2.40;1.67;;;20.10;99.90;;;;;;21062303;28;20325;-63
2023/07/29 07:25:25;;;;;;;6.03;2.30;;;20.10;99.90;;;;;;21018715;28;20218;-64
2023/07/29 07:35:27;;;;;;;1.87;1.40;;;20.10;99.90;;;;;;21049203;28;20329;-62
2023/07/29 07:45:29;;;;;;;1.63;1.47;;;20.30;99.90;;;;;;21053485;28;20562;-66
2023/07/29 07:55:31;;;;;;;1.70;1.30;;;20.50;99.90;;;;;;21083518;28;20325;-64
2023/07/29 08:05:32;;;;;;;1.30;1.20;;;20.60;99.90;;;;;;21083015;28;20235;-67
2023/07/29 08:15:36;;;;;;;1.50;1.40;;;21.00;99.90;;;;;;21102408;28;20748;-69
2023/07/29 08:25:38;;;;;;;2.90;1.10;;;21.30;99.90;;;;;;21063190;28;20207;-70
2023/07/29 08:35:40;;;;;;;1.07;0.90;;;21.50;99.90;;;;;;21086786;28;20234;-74
2023/07/29 08:45:43;;;;;;;3.20;1.60;;;21.50;99.90;;;;;;21078555;28;20197;-73
2023/07/29 08:55:45;;;;;;;3.37;1.53;;;21.00;99.90;;;;;;21159058;28;20349;-70
2023/07/29 09:05:47;;;;;;;1.90;1.20;;;21.10;99.90;;;;;;21158083;28;20743;-71
2023/07/29 09:15:53;;;;;;;4.43;1.13;;;21.40;99.90;;;;;;21155641;28;20705;-71
2023/07/29 09:26:02;;;;;;;1.20;1.00;;;21.60;99.90;;;;;;21099925;28;20199;-66
2023/07/29 09:36:10;;;;;;;16.47;2.43;;;21.60;99.90;;;;;;21068681;28;20226;-71
2023/07/29 09:46:12;;;;;;;2.37;1.20;;;21.50;99.90;;;;;;21070454;28;20211;-72
2023/07/29 09:56:15;;;;;;;3.87;1.20;;;21.60;99.90;;;;;;21070042;28;21494;-63
2023/07/29 10:06:18;;;;;;;1.97;1.00;;;21.80;99.90;;;;;;21044294;28;20253;-71
2023/07/29 10:16:21;;;;;;;1.73;1.00;;;21.90;99.90;;;;;;21070334;28;20253;-72
2023/07/29 10:26:24;;;;;;;1.50;1.30;;;22.20;99.90;;;;;;21129273;28;20202;-71
2023/07/29 10:36:27;;;;;;;3.87;1.90;;;22.40;99.90;;;;;;21154403;28;20242;-68
2023/07/29 10:46:35;;;;;;;9.10;2.80;;;22.60;99.90;;;;;;21169726;28;20206;-69
2023/07/29 10:56:48;;;;;;;2.23;1.83;;;22.70;99.90;;;;;;21168924;28;20626;-72
2023/07/29 11:17:12;;;;;;;2.97;2.20;;;23.40;99.90;;;;;;21172903;28;20236;-65
2023/07/29 11:27:14;;;;;;;3.93;1.90;;;23.50;99.90;;;;;;21172849;28;20210;-64
2023/07/29 11:37:16;;;;;;;2.60;2.00;;;23.60;99.90;;;;;;21171508;28;20236;-66
2023/07/29 11:47:18;;;;;;;2.27;1.90;;;23.70;99.90;;;;;;21091757;28;20208;-68
2023/07/29 11:57:20;;;;;;;1.90;1.70;;;23.90;99.90;;;;;;21001598;28;20231;-67
2023/07/29 12:07:22;;;;;;;2.57;2.37;;;24.00;98.80;;;;;;21000551;28;20223;-67
2023/07/29 12:17:24;;;;;;;3.23;2.93;;;23.90;98.10;;;;;;21000919;28;20253;-68
2023/07/29 12:27:26;;;;;;;2.50;1.87;;;24.00;97.80;;;;;;20999636;28;20216;-69
2023/07/29 12:37:32;;;;;;;6.27;2.50;;;24.00;97.20;;;;;;20998976;28;20231;-70
2023/07/29 12:47:34;;;;;;;2.87;2.20;;;23.70;97.50;;;;;;21056374;28;20669;-73
2023/07/29 12:57:36;;;;;;;4.27;2.10;;;23.50;98.10;;;;;;21125836;28;20692;-71
2023/07/29 13:07:42;;;;;;;5.83;3.43;;;23.30;98.20;;;;;;21094216;28;20279;-70
2023/07/29 13:17:44;;;;;;;3.03;2.23;;;23.20;98.40;;;;;;21078379;28;20226;-68
2023/07/29 13:27:46;;;;;;;2.60;2.10;;;23.40;98.60;;;;;;21155175;28;20263;-70
2023/07/29 13:37:47;;;;;;;4.77;2.40;;;23.60;98.80;;;;;;21157103;28;20233;-68
2023/07/29 13:47:50;;;;;;;2.20;1.87;;;23.90;98.50;;;;;;21157041;28;20204;-69
2023/07/29 13:57:53;;;;;;;3.20;1.90;;;24.10;97.40;;;;;;21101211;28;20260;-67
2023/07/29 14:07:55;;;;;;;2.10;1.80;;;24.30;96.70;;;;;;21071699;28;20736;-72
2023/07/29 14:17:56;;;;;;;4.10;2.10;;;24.90;96.30;;;;;;21081581;28;20229;-73
2023/07/29 14:27:58;;;;;;;2.10;1.90;;;25.20;95.50;;;;;;21086791;28;20203;-71
2023/07/29 14:38:00;;;;;;;1.73;1.63;;;28.00;91.20;;;;;;21085086;28;20234;-71
2023/07/29 14:48:02;;;;;;;3.22;1.67;;;28.40;84.60;;;;;;21086202;28;20297;-72
2023/07/29 14:58:04;;;;;;;1.45;1.35;;;28.70;81.50;;;;;;21084474;28;20322;-72
2023/07/29 15:08:06;;;;;;;1.73;1.55;;;29.40;75.20;;;;;;21083542;28;20230;-70
2023/07/29 15:18:08;;;;;;;1.98;1.60;;;28.40;73.70;;;;;;21083361;28;20716;-69
2023/07/29 15:28:09;;;;;;;1.95;1.67;;;28.30;72.60;;;;;;21051370;28;20569;-71
2023/07/29 15:38:11;;;;;;;1.75;1.50;;;27.40;73.20;;;;;;20997535;28;20325;-71
2023/07/29 15:48:13;;;;;;;1.80;1.70;;;26.80;73.00;;;;;;20997060;28;20546;-71
2023/07/29 15:58:15;;;;;;;2.30;1.73;;;26.50;73.20;;;;;;21112666;28;20639;-70
2023/07/29 16:08:16;;;;;;;3.23;1.70;;;26.20;73.10;;;;;;21068896;28;20326;-72
2023/07/29 16:18:18;;;;;;;3.20;1.63;;;26.00;73.00;;;;;;20994407;28;20231;-71
2023/07/29 16:28:20;;;;;;;2.00;1.70;;;25.90;72.90;;;;;;20994343;28;20211;-71
2023/07/29 16:38:21;;;;;;;10.53;2.07;;;25.80;72.60;;;;;;20992790;28;20235;-70
2023/07/29 16:48:25;;;;;;;2.55;1.83;;;26.10;72.10;;;;;;20993081;28;20609;-70
2023/07/29 16:58:27;;;;;;;1.73;1.63;;;27.90;67.80;;;;;;21111364;28;20222;-71
2023/07/29 17:08:28;;;;;;;4.88;1.60;;;28.60;64.70;;;;;;21158699;28;20739;-73
2023/07/29 17:18:30;;;;;;;3.67;1.50;;;27.30;66.10;;;;;;21157235;28;20232;-75
2023/07/29 17:28:32;;;;;;;1.90;1.60;;;26.50;67.30;;;;;;21157414;28;20650;-75
2023/07/29 17:38:34;;;;;;;3.07;1.50;;;26.30;67.60;;;;;;21159524;28;20233;-71
2023/07/29 17:48:35;;;;;;;3.33;1.90;;;26.70;66.10;;;;;;21163461;28;20242;-71
2023/07/29 17:58:37;;;;;;;4.30;2.10;;;26.60;66.90;;;;;;21179286;28;20294;-70
2023/07/29 18:08:40;;;;;;;2.33;1.90;;;26.10;67.30;;;;;;21179154;28;20260;-68
2023/07/29 18:18:41;;;;;;;2.23;1.73;;;25.70;68.90;;;;;;21178698;28;20248;-68
2023/07/29 18:28:43;;;;;;;4.03;2.00;;;25.40;68.90;;;;;;21177366;28;20229;-73
2023/07/29 18:38:45;;;;;;;1.90;1.70;;;25.20;69.90;;;;;;21176766;28;20589;-71
2023/07/29 18:48:46;;;;;;;2.70;2.50;;;24.90;70.90;;;;;;21175847;28;20214;-70
2023/07/29 18:58:48;;;;;;;2.93;2.20;;;24.70;72.30;;;;;;21175107;28;20268;-71
2023/07/29 19:08:51;;;;;;;3.97;1.90;;;24.40;74.20;;;;;;21174409;28;20665;-66
2023/07/29 19:18:52;;;;;;;5.17;2.30;;;24.20;75.90;;;;;;21173898;28;20236;-72
2023/07/29 19:28:54;;;;;;;4.83;2.20;;;24.10;77.90;;;;;;21172905;28;20288;-80
2023/07/29 19:38:56;;;;;;;3.93;1.80;;;23.80;80.50;;;;;;21070426;28;20693;-73
2023/07/29 19:48:57;;;;;;;3.17;2.00;;;23.60;82.50;;;;;;21046466;28;20301;-68
2023/07/29 19:58:59;;;;;;;3.50;2.10;;;23.50;84.10;;;;;;21013324;28;20593;-75
2023/07/29 20:09:01;;;;;;;3.73;1.90;;;23.40;85.70;;;;;;21001146;28;20235;-65
2023/07/29 20:19:03;;;;;;;2.53;1.70;;;23.30;87.00;;;;;;21019283;28;20231;-65
2023/07/29 20:29:04;;;;;;;2.10;1.90;;;23.10;88.30;;;;;;21018551;28;20202;-73
2023/07/29 20:39:06;;;;;;;2.47;2.00;;;23.00;89.60;;;;;;21039125;28;20325;-72
2023/07/29 20:49:08;;;;;;;2.57;2.00;;;22.90;90.40;;;;;;21051572;28;20313;-67
2023/07/29 20:59:11;;;;;;;2.80;2.00;;;22.80;91.00;;;;;;21046143;28;20238;-68
2023/07/29 21:09:13;;;;;;;4.43;2.10;;;22.70;91.60;;;;;;21022167;28;20268;-65
2023/07/29 21:19:15;;;;;;;2.50;2.30;;;22.60;92.10;;;;;;21036040;28;20234;-66
2023/07/29 21:29:16;;;;;;;4.70;2.27;;;22.50;92.80;;;;;;21025152;28;20569;-68
2023/07/29 21:39:18;;;;;;;2.20;2.00;;;22.50;93.30;;;;;;21028750;28;20646;-66
2023/07/29 21:49:20;;;;;;;4.60;2.00;;;22.40;93.70;;;;;;21037109;28;20209;-69
2023/07/29 21:59:22;;;;;;;2.60;2.40;;;22.30;94.00;;;;;;21033134;28;20223;-68
2023/07/29 22:09:23;;;;;;;3.57;2.43;;;22.30;94.30;;;;;;21024209;28;20325;-65
2023/07/29 22:19:25;;;;;;;2.93;2.10;;;22.30;94.50;;;;;;21026737;28;20234;-65
2023/07/29 22:29:27;;;;;;;5.20;2.00;;;22.30;94.90;;;;;;21029677;28;20206;-67
2023/07/29 22:39:30;;;;;;;2.40;2.20;;;22.20;95.20;;;;;;21045864;28;20264;-66
2023/07/29 22:49:32;;;;;;;3.43;2.13;;;22.20;95.50;;;;;;21041699;28;20666;-66
2023/07/29 22:59:33;;;;;;;2.80;2.27;;;22.10;95.90;;;;;;21044247;28;20230;-70
2023/07/29 23:09:35;;;;;;;3.50;2.30;;;22.10;96.20;;;;;;21053243;28;20231;-67
2023/07/29 23:19:37;;;;;;;4.23;2.33;;;22.10;96.60;;;;;;21040947;28;20593;-70
2023/07/29 23:29:39;;;;;;;2.87;2.33;;;22.10;96.90;;;;;;21039663;28;20210;-64
2023/07/29 23:39:40;;;;;;;3.37;2.73;;;22.10;97.10;;;;;;21048515;28;20325;-71
2023/07/29 23:49:42;;;;;;;2.93;2.50;;;22.10;97.40;;;;;;21005368;28;20217;-66
2023/07/29 23:59:49;;;;;;;4.77;2.37;;;22.10;97.70;;;;;;21002874;28;20592;-73
